createdAt,value
2022-08-25T00:00:46.956Z,20.23
2022-08-25T00:01:51.540Z,20.21
2022-08-25T00:02:55.255Z,20.23
2022-08-25T00:03:59.135Z,20.27
2022-08-25T00:05:01.355Z,20.24
2022-08-25T00:06:06.480Z,20.24
2022-08-25T00:07:08.086Z,20.24
2022-08-25T00:08:09.726Z,20.27
2022-08-25T00:09:12.467Z,20.24
2022-08-25T00:10:14.124Z,20.24
2022-08-25T00:11:21.466Z,20.27
2022-08-25T00:12:23.128Z,20.24
2022-08-25T00:13:24.742Z,20.24
2022-08-25T00:14:31.694Z,20.26
2022-08-25T00:15:33.529Z,20.27
2022-08-25T00:16:35.237Z,20.24
2022-08-25T00:17:36.876Z,20.27
2022-08-25T00:18:39.342Z,20.27
2022-08-25T00:19:40.950Z,20.27
2022-08-25T00:20:48.701Z,20.27
2022-08-25T00:21:51.197Z,20.24
2022-08-25T00:22:52.935Z,20.27
2022-08-25T00:23:54.769Z,20.30
2022-08-25T00:24:56.388Z,20.24
2022-08-25T00:25:58.054Z,20.23
2022-08-25T00:27:01.845Z,20.21
2022-08-25T00:28:08.278Z,20.19
2022-08-25T00:29:10.384Z,20.19
2022-08-25T00:30:16.013Z,20.20
2022-08-25T00:31:18.911Z,20.20
2022-08-25T00:32:20.613Z,20.21
2022-08-25T00:33:22.297Z,20.19
2022-08-25T00:34:29.735Z,20.16
2022-08-25T00:35:31.350Z,20.13
2022-08-25T00:36:33.238Z,20.10
2022-08-25T00:37:36.369Z,20.08
2022-08-25T00:38:41.384Z,20.08
2022-08-25T00:39:43.025Z,20.08
2022-08-25T00:40:44.721Z,20.08
2022-08-25T00:41:46.384Z,20.09
2022-08-25T00:42:48.070Z,20.06
2022-08-25T00:43:57.940Z,20.06
2022-08-25T00:45:00.559Z,20.08
2022-08-25T00:46:03.092Z,20.06
2022-08-25T00:47:04.944Z,20.06
2022-08-25T00:48:06.950Z,20.09
2022-08-25T00:49:24.826Z,20.08
2022-08-25T00:50:28.382Z,20.09
2022-08-25T00:51:51.563Z,20.06
2022-08-25T00:52:54.954Z,20.09
2022-08-25T00:53:56.601Z,20.06
2022-08-25T00:55:08.106Z,20.08
2022-08-25T00:56:11.021Z,20.08
2022-08-25T00:57:13.264Z,20.09
2022-08-25T00:58:25.086Z,20.05
2022-08-25T00:59:27.001Z,20.05
2022-08-25T01:00:31.489Z,20.05
2022-08-25T01:01:33.179Z,20.08
2022-08-25T01:02:34.851Z,20.05
2022-08-25T01:03:36.601Z,20.06
2022-08-25T01:04:38.389Z,20.06
2022-08-25T01:05:40.977Z,20.05
2022-08-25T01:06:44.517Z,20.06
2022-08-25T01:07:46.223Z,20.05
2022-08-25T01:08:47.914Z,20.03
2022-08-25T01:09:50.318Z,20.03
2022-08-25T01:10:51.980Z,20.01
2022-08-25T01:11:53.603Z,20.01
2022-08-25T01:12:58.674Z,20.00
2022-08-25T01:14:03.336Z,19.97
2022-08-25T01:15:05.800Z,19.94
2022-08-25T01:16:07.548Z,19.90
2022-08-25T01:17:09.674Z,19.92
2022-08-25T01:18:11.976Z,19.86
2022-08-25T01:19:15.194Z,19.89
2022-08-25T01:20:19.512Z,19.87
2022-08-25T01:21:22.296Z,19.85
2022-08-25T01:22:26.816Z,19.85
2022-08-25T01:23:28.451Z,19.80
2022-08-25T01:24:50.130Z,19.80
2022-08-25T01:25:53.153Z,19.82
2022-08-25T01:26:54.798Z,19.79
2022-08-25T01:27:56.479Z,19.76
2022-08-25T01:29:17.922Z,19.79
2022-08-25T01:30:19.527Z,19.76
2022-08-25T01:31:24.060Z,19.78
2022-08-25T01:32:26.086Z,19.80
2022-08-25T01:33:27.716Z,19.80
2022-08-25T01:34:31.130Z,19.80
2022-08-25T01:35:33.344Z,19.82
2022-08-25T01:36:35.659Z,19.85
2022-08-25T01:37:37.267Z,19.85
2022-08-25T01:38:38.944Z,19.86
2022-08-25T01:39:40.750Z,19.83
2022-08-25T01:40:43.017Z,19.85
2022-08-25T01:41:59.806Z,19.86
2022-08-25T01:43:07.803Z,19.83
2022-08-25T01:44:12.323Z,19.83
2022-08-25T01:45:19.046Z,19.86
2022-08-25T01:46:20.700Z,19.87
2022-08-25T01:47:22.654Z,19.87
2022-08-25T01:48:24.264Z,19.86
2022-08-25T01:49:25.881Z,19.87
2022-08-25T01:50:27.921Z,19.85
2022-08-25T01:51:30.669Z,19.86
2022-08-25T01:52:53.927Z,19.87
2022-08-25T01:53:55.553Z,19.86
2022-08-25T01:54:57.229Z,19.90
2022-08-25T01:56:06.269Z,19.87
2022-08-25T01:57:11.511Z,19.89
2022-08-25T01:58:13.421Z,19.87
2022-08-25T01:59:16.876Z,19.90
2022-08-25T02:00:25.792Z,19.90
2022-08-25T02:01:27.881Z,19.86
2022-08-25T02:02:31.632Z,19.89
2022-08-25T02:03:38.697Z,19.87
2022-08-25T02:04:44.296Z,19.87
2022-08-25T02:05:47.983Z,19.87
2022-08-25T02:06:50.338Z,19.89
2022-08-25T02:07:51.942Z,19.92
2022-08-25T02:08:58.608Z,19.89
2022-08-25T02:10:03.509Z,19.87
2022-08-25T02:11:05.430Z,19.86
2022-08-25T02:12:09.270Z,19.86
2022-08-25T02:13:11.022Z,19.85
2022-08-25T02:14:12.969Z,19.85
2022-08-25T02:15:14.659Z,19.87
2022-08-25T02:16:18.402Z,19.86
2022-08-25T02:17:20.018Z,19.87
2022-08-25T02:18:21.786Z,19.89
2022-08-25T02:19:24.519Z,19.89
2022-08-25T02:20:26.481Z,19.90
2022-08-25T02:21:28.370Z,19.90
2022-08-25T02:22:29.993Z,19.90
2022-08-25T02:23:31.628Z,19.92
2022-08-25T02:24:33.256Z,19.90
2022-08-25T02:25:35.470Z,19.92
2022-08-25T02:26:37.096Z,19.93
2022-08-25T02:27:38.704Z,19.92
2022-08-25T02:28:40.355Z,19.92
2022-08-25T02:29:41.997Z,19.92
2022-08-25T02:30:46.502Z,19.92
2022-08-25T02:31:48.722Z,19.89
2022-08-25T02:32:51.071Z,19.90
2022-08-25T02:33:52.798Z,19.92
2022-08-25T02:34:54.430Z,19.90
2022-08-25T02:36:02.363Z,19.94
2022-08-25T02:37:04.025Z,19.92
2022-08-25T02:38:05.872Z,19.92
2022-08-25T02:39:08.282Z,19.92
2022-08-25T02:40:10.469Z,19.92
2022-08-25T02:41:20.361Z,19.89
2022-08-25T02:42:22.096Z,19.85
2022-08-25T02:43:24.967Z,19.89
2022-08-25T02:44:26.595Z,19.86
2022-08-25T02:45:28.552Z,19.85
2022-08-25T02:46:31.231Z,19.85
2022-08-25T02:47:32.942Z,19.87
2022-08-25T02:48:34.543Z,19.87
2022-08-25T02:49:37.261Z,19.86
2022-08-25T02:50:38.879Z,19.87
2022-08-25T02:51:40.545Z,19.86
2022-08-25T02:52:42.260Z,19.86
2022-08-25T02:53:46.077Z,19.89
2022-08-25T02:54:47.713Z,19.83
2022-08-25T02:55:49.313Z,19.86
2022-08-25T02:56:50.989Z,19.83
2022-08-25T02:57:52.813Z,19.83
2022-08-25T02:58:54.502Z,19.83
2022-08-25T02:59:56.134Z,19.85
2022-08-25T03:00:57.844Z,19.87
2022-08-25T03:02:00.557Z,19.86
2022-08-25T03:03:02.185Z,19.85
2022-08-25T03:04:03.862Z,19.82
2022-08-25T03:05:06.070Z,19.78
2022-08-25T03:06:08.905Z,19.76
2022-08-25T03:07:10.991Z,19.79
2022-08-25T03:08:14.182Z,19.72
2022-08-25T03:09:15.962Z,19.72
2022-08-25T03:10:18.914Z,19.72
2022-08-25T03:11:20.789Z,19.72
2022-08-25T03:12:22.711Z,19.69
2022-08-25T03:13:24.334Z,19.68
2022-08-25T03:14:26.012Z,19.69
2022-08-25T03:15:28.028Z,19.62
2022-08-25T03:16:32.351Z,19.61
2022-08-25T03:17:35.643Z,19.63
2022-08-25T03:18:37.913Z,19.63
2022-08-25T03:19:39.591Z,19.61
2022-08-25T03:20:41.991Z,19.58
2022-08-25T03:21:45.854Z,19.58
2022-08-25T03:22:47.492Z,19.54
2022-08-25T03:23:49.142Z,19.55
2022-08-25T03:24:50.828Z,19.51
2022-08-25T03:26:13.514Z,19.51
2022-08-25T03:27:15.551Z,19.48
2022-08-25T03:28:17.690Z,19.45
2022-08-25T03:29:28.444Z,19.47
2022-08-25T03:30:30.058Z,19.44
2022-08-25T03:31:32.724Z,19.42
2022-08-25T03:32:34.365Z,19.36
2022-08-25T03:33:36.003Z,19.34
2022-08-25T03:34:37.653Z,19.32
2022-08-25T03:35:39.251Z,19.35
2022-08-25T03:36:41.062Z,19.31
2022-08-25T03:37:42.657Z,19.31
2022-08-25T03:38:44.280Z,19.32
2022-08-25T03:39:45.976Z,19.34
2022-08-25T03:40:47.623Z,19.35
2022-08-25T03:41:50.089Z,19.34
2022-08-25T03:42:51.720Z,19.28
2022-08-25T03:43:53.650Z,19.32
2022-08-25T03:44:55.243Z,19.32
2022-08-25T03:45:57.390Z,19.34
2022-08-25T03:46:59.058Z,19.34
2022-08-25T03:48:00.723Z,19.32
2022-08-25T03:49:04.392Z,19.34
2022-08-25T03:50:07.227Z,19.32
2022-08-25T03:51:08.853Z,19.29
2022-08-25T03:52:10.535Z,19.29
2022-08-25T03:53:12.177Z,19.28
2022-08-25T03:54:16.244Z,19.31
2022-08-25T03:55:17.857Z,19.27
2022-08-25T03:56:19.747Z,19.28
2022-08-25T03:57:21.439Z,19.21
2022-08-25T03:58:24.679Z,19.25
2022-08-25T03:59:27.338Z,19.25
2022-08-25T04:00:28.969Z,19.24
2022-08-25T04:01:30.795Z,19.27
2022-08-25T04:02:33.849Z,19.22
2022-08-25T04:03:35.911Z,19.24
2022-08-25T04:04:39.528Z,19.24
2022-08-25T04:05:41.150Z,19.25
2022-08-25T04:06:43.706Z,19.25
2022-08-25T04:07:45.307Z,19.22
2022-08-25T04:08:47.218Z,19.28
2022-08-25T04:09:51.194Z,19.25
2022-08-25T04:10:52.775Z,19.28
2022-08-25T04:11:54.397Z,19.28
2022-08-25T04:12:56.238Z,19.32
2022-08-25T04:13:58.576Z,19.31
2022-08-25T04:15:00.253Z,19.28
2022-08-25T04:16:01.965Z,19.29
2022-08-25T04:17:04.179Z,19.34
2022-08-25T04:18:06.855Z,19.34
2022-08-25T04:19:09.458Z,19.36
2022-08-25T04:20:14.087Z,19.38
2022-08-25T04:21:16.861Z,19.44
2022-08-25T04:22:18.519Z,19.47
2022-08-25T04:23:20.691Z,19.47
2022-08-25T04:24:22.310Z,19.45
2022-08-25T04:25:23.942Z,19.47
2022-08-25T04:26:31.621Z,19.45
2022-08-25T04:27:33.254Z,19.49
2022-08-25T04:28:34.950Z,19.45
2022-08-25T04:29:36.573Z,19.51
2022-08-25T04:30:42.050Z,19.54
2022-08-25T04:31:44.303Z,19.51
2022-08-25T04:32:45.914Z,19.48
2022-08-25T04:33:48.458Z,19.49
2022-08-25T04:34:50.408Z,19.48
2022-08-25T04:35:52.103Z,19.51
2022-08-25T04:36:54.156Z,19.47
2022-08-25T04:37:55.819Z,19.51
2022-08-25T04:38:57.507Z,19.52
2022-08-25T04:39:59.169Z,19.55
2022-08-25T04:41:02.339Z,19.66
2022-08-25T04:42:04.248Z,19.66
2022-08-25T04:43:05.869Z,19.66
2022-08-25T04:44:07.584Z,19.66
2022-08-25T04:45:09.356Z,19.66
2022-08-25T04:46:13.733Z,19.65
2022-08-25T04:47:22.140Z,19.69
2022-08-25T04:48:23.919Z,19.68
2022-08-25T04:49:25.680Z,19.69
2022-08-25T04:50:27.321Z,19.69
2022-08-25T04:51:34.096Z,19.69
2022-08-25T04:52:35.687Z,19.69
2022-08-25T04:53:37.537Z,19.70
2022-08-25T04:54:39.413Z,19.72
2022-08-25T04:55:45.391Z,19.73
2022-08-25T04:56:50.081Z,19.70
2022-08-25T04:57:55.844Z,19.76
2022-08-25T04:58:57.705Z,19.75
2022-08-25T04:59:59.348Z,19.72
2022-08-25T05:01:11.594Z,19.75
2022-08-25T05:02:13.284Z,19.75
2022-08-25T05:03:14.899Z,19.79
2022-08-25T05:04:27.658Z,19.79
2022-08-25T05:05:30.655Z,19.83
2022-08-25T05:06:32.441Z,19.86
2022-08-25T05:07:34.074Z,19.86
2022-08-25T05:08:35.930Z,19.85
2022-08-25T05:09:37.971Z,19.90
2022-08-25T05:10:40.633Z,19.92
2022-08-25T05:11:44.096Z,19.89
2022-08-25T05:12:45.959Z,19.94
2022-08-25T05:13:51.438Z,19.93
2022-08-25T05:14:54.003Z,19.97
2022-08-25T05:15:57.575Z,19.96
2022-08-25T05:17:02.088Z,20.06
2022-08-25T05:18:03.774Z,20.09
2022-08-25T05:19:05.514Z,20.12
2022-08-25T05:20:07.619Z,20.16
2022-08-25T05:21:16.961Z,20.20
2022-08-25T05:22:18.590Z,20.23
2022-08-25T05:23:21.127Z,20.27
2022-08-25T05:24:22.815Z,20.36
2022-08-25T05:25:24.461Z,20.43
2022-08-25T05:26:27.853Z,20.48
2022-08-25T05:27:29.736Z,20.55
2022-08-25T05:28:31.746Z,20.72
2022-08-25T05:29:33.372Z,20.98
2022-08-25T05:30:38.156Z,21.29
2022-08-25T05:31:43.991Z,21.69
2022-08-25T05:32:46.731Z,22.43
2022-08-25T05:33:48.368Z,23.13
2022-08-25T05:34:49.995Z,23.88
2022-08-25T05:35:52.013Z,24.39
2022-08-25T05:36:55.024Z,24.90
2022-08-25T05:37:57.461Z,25.48
2022-08-25T05:38:59.075Z,25.58
2022-08-25T05:40:01.182Z,25.73
2022-08-25T05:41:04.395Z,26.04
2022-08-25T05:42:06.210Z,26.25
2022-08-25T05:43:07.821Z,26.39
2022-08-25T05:44:09.781Z,26.50
2022-08-25T05:45:20.238Z,26.48
2022-08-25T05:46:22.406Z,26.42
2022-08-25T05:47:24.246Z,26.21
2022-08-25T05:48:26.589Z,26.15
2022-08-25T05:49:28.268Z,26.26
2022-08-25T05:50:29.883Z,25.99
2022-08-25T05:51:31.587Z,25.61
2022-08-25T05:52:33.310Z,25.65
2022-08-25T05:53:35.106Z,25.67
2022-08-25T05:54:36.709Z,25.33
2022-08-25T05:55:38.359Z,25.04
2022-08-25T05:56:40.343Z,24.94
2022-08-25T05:57:42.015Z,24.61
2022-08-25T05:58:44.477Z,24.55
2022-08-25T05:59:46.086Z,24.56
2022-08-25T06:00:47.905Z,24.43
2022-08-25T06:02:08.333Z,24.38
2022-08-25T06:03:09.999Z,24.21
2022-08-25T06:04:11.663Z,24.21
2022-08-25T06:05:17.999Z,24.21
2022-08-25T06:06:20.809Z,24.21
2022-08-25T06:07:22.516Z,24.14
2022-08-25T06:08:24.216Z,24.17
2022-08-25T06:09:26.527Z,24.14
2022-08-25T06:10:28.271Z,24.04
2022-08-25T06:11:30.632Z,24.02
2022-08-25T06:12:36.232Z,24.07
2022-08-25T06:13:37.957Z,24.04
2022-08-25T06:14:39.570Z,24.12
2022-08-25T06:15:41.200Z,24.07
2022-08-25T06:16:42.877Z,24.08
2022-08-25T06:17:44.605Z,24.08
2022-08-25T06:18:46.344Z,23.87
2022-08-25T06:19:48.062Z,23.84
2022-08-25T06:20:49.679Z,23.82
2022-08-25T06:21:54.388Z,23.84
2022-08-25T06:22:57.612Z,23.84
2022-08-25T06:23:59.288Z,23.67
2022-08-25T06:25:00.969Z,23.74
2022-08-25T06:26:04.435Z,23.87
2022-08-25T06:27:06.222Z,23.93
2022-08-25T06:28:07.859Z,24.00
2022-08-25T06:29:09.511Z,24.00
2022-08-25T06:30:12.847Z,24.02
2022-08-25T06:31:18.126Z,24.01
2022-08-25T06:32:19.771Z,23.88
2022-08-25T06:33:21.449Z,24.07
2022-08-25T06:34:24.153Z,24.18
2022-08-25T06:35:25.990Z,24.26
2022-08-25T06:36:28.363Z,24.29
2022-08-25T06:37:30.494Z,24.28
2022-08-25T06:38:32.141Z,24.41
2022-08-25T06:39:34.457Z,24.36
2022-08-25T06:40:36.244Z,24.41
2022-08-25T06:41:38.027Z,24.53
2022-08-25T06:42:39.724Z,24.63
2022-08-25T06:43:47.348Z,24.66
2022-08-25T06:44:49.917Z,24.76
2022-08-25T06:45:51.581Z,24.75
2022-08-25T06:46:53.541Z,24.79
2022-08-25T06:47:57.795Z,24.79
2022-08-25T06:49:00.829Z,24.89
2022-08-25T06:50:03.881Z,24.86
2022-08-25T06:51:09.451Z,24.73
2022-08-25T06:52:15.733Z,24.90
2022-08-25T06:53:17.346Z,24.92
2022-08-25T06:54:18.960Z,24.76
2022-08-25T06:55:20.585Z,24.80
2022-08-25T06:56:22.248Z,24.93
2022-08-25T06:57:25.670Z,24.94
2022-08-25T06:58:28.147Z,25.02
2022-08-25T06:59:32.322Z,25.19
2022-08-25T07:00:34.284Z,25.26
2022-08-25T07:01:36.333Z,25.30
2022-08-25T07:02:38.663Z,25.27
2022-08-25T07:03:40.479Z,25.33
2022-08-25T07:04:42.203Z,25.45
2022-08-25T07:05:51.586Z,25.51
2022-08-25T07:06:53.212Z,25.61
2022-08-25T07:07:54.895Z,25.61
2022-08-25T07:08:56.585Z,25.64
2022-08-25T07:09:58.197Z,25.67
2022-08-25T07:11:16.461Z,25.71
2022-08-25T07:12:19.155Z,25.43
2022-08-25T07:13:20.794Z,25.58
2022-08-25T07:14:22.549Z,25.64
2022-08-25T07:15:24.172Z,25.70
2022-08-25T07:16:29.562Z,25.61
2022-08-25T07:17:32.765Z,25.68
2022-08-25T07:18:35.065Z,25.75
2022-08-25T07:19:36.990Z,25.78
2022-08-25T07:20:39.480Z,25.84
2022-08-25T07:21:41.765Z,25.92
2022-08-25T07:22:43.459Z,25.99
2022-08-25T07:23:45.133Z,26.06
2022-08-25T07:24:46.795Z,26.11
2022-08-25T07:25:48.459Z,26.15
2022-08-25T07:26:50.364Z,26.21
2022-08-25T07:27:54.809Z,26.21
2022-08-25T07:29:00.137Z,26.14
2022-08-25T07:30:02.332Z,26.25
2022-08-25T07:31:06.667Z,26.29
2022-08-25T07:32:11.631Z,26.38
2022-08-25T07:33:13.530Z,26.35
2022-08-25T07:34:34.679Z,26.38
2022-08-25T07:35:37.796Z,26.43
2022-08-25T07:36:39.648Z,26.40
2022-08-25T07:37:49.174Z,26.46
2022-08-25T07:38:51.665Z,26.45
2022-08-25T07:39:53.726Z,26.40
2022-08-25T07:41:02.700Z,26.49
2022-08-25T07:42:05.504Z,26.48
2022-08-25T07:43:13.620Z,26.50
2022-08-25T07:44:15.331Z,26.50
2022-08-25T07:45:20.650Z,26.55
2022-08-25T07:46:22.801Z,26.64
2022-08-25T07:47:24.474Z,26.64
2022-08-25T07:48:26.116Z,26.72
2022-08-25T07:49:35.849Z,26.75
2022-08-25T07:50:44.967Z,26.76
2022-08-25T07:52:03.648Z,26.80
2022-08-25T07:53:07.821Z,26.82
2022-08-25T07:54:09.729Z,26.86
2022-08-25T07:55:12.057Z,26.91
2022-08-25T07:56:19.644Z,26.84
2022-08-25T07:57:22.381Z,26.89
2022-08-25T07:58:24.283Z,26.89
2022-08-25T07:59:27.050Z,26.93
2022-08-25T08:00:30.333Z,27.00
2022-08-25T08:01:32.060Z,27.00
2022-08-25T08:02:35.188Z,26.94
2022-08-25T08:03:50.284Z,26.97
2022-08-25T08:04:53.303Z,27.07
2022-08-25T08:05:56.604Z,27.11
2022-08-25T08:06:58.222Z,27.11
2022-08-25T08:08:00.435Z,27.12
2022-08-25T08:09:02.949Z,27.12
2022-08-25T08:10:33.198Z,27.11
2022-08-25T08:11:29.675Z,27.01
2022-08-25T08:12:34.029Z,27.00
2022-08-25T08:13:40.788Z,27.04
2022-08-25T08:14:44.915Z,27.10
2022-08-25T08:15:48.042Z,27.15
2022-08-25T08:16:49.839Z,27.14
2022-08-25T08:17:51.577Z,27.12
2022-08-25T08:18:53.792Z,27.15
2022-08-25T08:19:55.417Z,27.08
2022-08-25T08:20:57.238Z,27.07
2022-08-25T08:22:02.321Z,27.11
2022-08-25T08:23:04.297Z,27.17
2022-08-25T08:24:14.795Z,27.23
2022-08-25T08:25:27.432Z,27.24
2022-08-25T08:26:48.205Z,27.27
2022-08-25T08:27:50.893Z,27.31
2022-08-25T08:28:56.817Z,27.37
2022-08-25T08:29:58.801Z,27.42
2022-08-25T08:31:01.078Z,27.44
2022-08-25T08:32:03.804Z,27.47
2022-08-25T08:33:11.197Z,27.51
2022-08-25T08:34:13.704Z,27.47
2022-08-25T08:35:18.934Z,27.41
2022-08-25T08:36:20.627Z,27.28
2022-08-25T08:37:23.054Z,27.34
2022-08-25T08:38:27.124Z,27.35
2022-08-25T08:39:29.335Z,27.35
2022-08-25T08:40:31.498Z,27.40
2022-08-25T08:42:12.111Z,27.47
2022-08-25T08:43:18.542Z,27.54
2022-08-25T08:44:30.415Z,27.55
2022-08-25T08:45:44.155Z,27.57
2022-08-25T08:47:11.459Z,27.62
2022-08-25T08:48:33.009Z,27.66
2022-08-25T08:49:49.575Z,27.69
2022-08-25T08:50:57.458Z,27.68
2022-08-25T08:52:01.701Z,27.72
2022-08-25T08:53:09.402Z,27.77
2022-08-25T08:54:15.037Z,27.72
2022-08-25T08:55:38.666Z,27.78
2022-08-25T08:56:45.331Z,27.81
2022-08-25T08:57:51.404Z,27.77
2022-08-25T08:59:00.606Z,27.78
2022-08-25T09:00:06.020Z,27.82
2022-08-25T09:01:07.958Z,27.84
2022-08-25T09:02:14.594Z,27.85
2022-08-25T09:03:43.747Z,27.91
2022-08-25T09:04:53.596Z,27.89
2022-08-25T09:05:56.411Z,27.95
2022-08-25T09:06:59.270Z,27.98
2022-08-25T09:08:07.631Z,28.01
2022-08-25T09:09:09.619Z,28.01
2022-08-25T09:10:12.018Z,27.99
2022-08-25T09:11:23.031Z,27.95
2022-08-25T09:12:38.339Z,27.82
2022-08-25T09:13:56.863Z,27.88
2022-08-25T09:15:18.360Z,27.81
2022-08-25T09:16:57.268Z,27.81
2022-08-25T09:18:24.357Z,27.75
2022-08-25T09:19:54.161Z,27.79
2022-08-25T09:21:10.736Z,27.78
2022-08-25T09:22:34.865Z,27.61
2022-08-25T09:24:06.460Z,27.61
2022-08-25T09:25:08.823Z,27.63
2022-08-25T09:26:27.422Z,27.58
2022-08-25T09:27:45.472Z,27.57
2022-08-25T09:28:51.967Z,27.59
2022-08-25T09:30:01.952Z,27.58
2022-08-25T09:31:29.874Z,27.72
2022-08-25T09:32:53.786Z,27.72
2022-08-25T09:33:57.132Z,27.71
2022-08-25T09:34:59.319Z,27.68
2022-08-25T09:36:01.071Z,27.77
2022-08-25T09:37:07.704Z,27.82
2022-08-25T09:38:10.692Z,27.81
2022-08-25T09:39:12.369Z,27.81
2022-08-25T09:40:14.703Z,27.91
2022-08-25T09:41:19.450Z,27.95
2022-08-25T09:42:23.957Z,27.96
2022-08-25T09:43:33.076Z,28.01
2022-08-25T09:44:43.655Z,28.05
2022-08-25T09:45:48.890Z,28.13
2022-08-25T09:47:02.059Z,28.16
2022-08-25T09:48:05.064Z,28.17
2022-08-25T09:49:12.912Z,28.19
2022-08-25T09:50:18.649Z,28.20
2022-08-25T09:51:23.452Z,28.23
2022-08-25T09:52:35.572Z,28.27
2022-08-25T09:53:37.514Z,28.33
2022-08-25T09:54:46.667Z,28.44
2022-08-25T09:56:00.048Z,28.54
2022-08-25T09:57:05.586Z,28.59
2022-08-25T09:58:17.498Z,28.61
2022-08-25T09:59:20.891Z,28.60
2022-08-25T10:00:36.889Z,28.56
2022-08-25T10:01:48.869Z,28.53
2022-08-25T10:03:05.611Z,28.44
2022-08-25T10:04:18.939Z,28.49
2022-08-25T10:05:24.421Z,28.52
2022-08-25T10:06:27.657Z,28.56
2022-08-25T10:07:37.488Z,28.59
2022-08-25T10:08:44.913Z,28.67
2022-08-25T10:09:53.426Z,28.68
2022-08-25T10:10:57.445Z,28.71
2022-08-25T10:12:01.239Z,28.75
2022-08-25T10:13:06.282Z,28.81
2022-08-25T10:14:21.336Z,28.83
2022-08-25T10:15:25.071Z,28.86
2022-08-25T10:16:35.717Z,28.78
2022-08-25T10:17:38.647Z,28.75
2022-08-25T10:18:40.833Z,28.67
2022-08-25T10:19:44.603Z,28.47
2022-08-25T10:21:01.448Z,28.49
2022-08-25T10:22:05.472Z,28.52
2022-08-25T10:23:11.987Z,28.52
2022-08-25T10:24:13.679Z,28.53
2022-08-25T10:25:17.179Z,28.52
2022-08-25T10:26:48.598Z,28.57
2022-08-25T10:28:08.696Z,28.64
2022-08-25T10:29:17.740Z,28.60
2022-08-25T10:30:34.158Z,28.70
2022-08-25T10:31:51.962Z,28.68
2022-08-25T10:33:24.317Z,28.77
2022-08-25T10:34:46.341Z,28.63
2022-08-25T10:35:57.939Z,28.71
2022-08-25T10:37:12.403Z,28.70
2022-08-25T10:38:46.152Z,28.77
2022-08-25T10:40:16.762Z,28.80
2022-08-25T10:41:22.445Z,28.87
2022-08-25T10:42:25.828Z,28.90
2022-08-25T10:43:31.465Z,28.91
2022-08-25T10:44:51.345Z,28.91
2022-08-25T10:46:21.241Z,28.75
2022-08-25T10:47:42.896Z,28.77
2022-08-25T10:49:34.517Z,28.70
2022-08-25T10:51:03.873Z,28.70
2022-08-25T10:52:21.445Z,28.77
2022-08-25T10:53:27.513Z,28.83
2022-08-25T10:54:40.915Z,28.93
2022-08-25T10:56:17.246Z,28.97
2022-08-25T10:57:32.640Z,28.95
2022-08-25T10:58:45.848Z,29.00
2022-08-25T10:59:57.054Z,29.00
2022-08-25T11:01:13.803Z,29.03
2022-08-25T11:02:45.087Z,29.01
2022-08-25T11:03:53.092Z,29.08
2022-08-25T11:05:14.105Z,29.12
2022-08-25T11:06:35.815Z,29.11
2022-08-25T11:07:38.414Z,29.19
2022-08-25T11:08:42.531Z,29.18
2022-08-25T11:09:45.134Z,29.19
2022-08-25T11:11:09.486Z,29.25
2022-08-25T11:12:31.478Z,29.28
2022-08-25T11:13:46.455Z,29.34
2022-08-25T11:14:50.623Z,29.39
2022-08-25T11:16:16.677Z,29.42
2022-08-25T11:17:22.297Z,29.49
2022-08-25T11:18:24.507Z,29.52
2022-08-25T11:19:33.709Z,29.55
2022-08-25T11:20:42.749Z,29.55
2022-08-25T11:22:13.715Z,29.62
2022-08-25T11:23:29.375Z,29.62
2022-08-25T11:24:54.366Z,29.56
2022-08-25T11:26:07.609Z,29.45
2022-08-25T11:27:13.841Z,29.45
2022-08-25T11:28:34.852Z,29.42
2022-08-25T11:29:37.416Z,29.44
2022-08-25T11:30:41.499Z,29.45
2022-08-25T11:31:53.263Z,29.48
2022-08-25T11:32:55.790Z,29.49
2022-08-25T11:33:57.553Z,29.52
2022-08-25T11:35:02.570Z,29.49
2022-08-25T11:36:24.861Z,29.59
2022-08-25T11:37:31.696Z,29.58
2022-08-25T11:38:49.202Z,29.59
2022-08-25T11:40:13.689Z,29.59
2022-08-25T11:41:25.330Z,29.59
2022-08-25T11:43:00.409Z,29.58
2022-08-25T11:44:08.232Z,29.62
2022-08-25T11:45:40.902Z,29.58
2022-08-25T11:46:52.907Z,29.56
2022-08-25T11:48:01.520Z,29.61
2022-08-25T11:49:39.800Z,29.59
2022-08-25T11:50:59.691Z,29.61
2022-08-25T11:52:03.069Z,29.63
2022-08-25T11:53:30.953Z,29.65
2022-08-25T11:54:37.034Z,29.63
2022-08-25T11:55:38.639Z,29.65
2022-08-25T11:56:43.589Z,29.67
2022-08-25T11:57:48.754Z,29.67
2022-08-25T11:58:54.605Z,29.73
2022-08-25T12:00:26.819Z,29.79
2022-08-25T12:01:53.751Z,29.83
2022-08-25T12:02:58.464Z,29.89
2022-08-25T12:04:45.215Z,29.93
2022-08-25T12:05:47.291Z,29.90
2022-08-25T12:07:07.403Z,29.97
2022-08-25T12:08:27.612Z,29.90
2022-08-25T12:09:29.292Z,30.02
2022-08-25T12:10:55.987Z,29.99
2022-08-25T12:11:58.319Z,30.06
2022-08-25T12:13:24.031Z,30.10
2022-08-25T12:14:28.009Z,30.17
2022-08-25T12:15:42.131Z,30.23
2022-08-25T12:16:57.025Z,30.28
2022-08-25T12:18:16.426Z,30.28
2022-08-25T12:19:38.079Z,30.21
2022-08-25T12:20:57.917Z,30.23
2022-08-25T12:22:03.697Z,30.24
2022-08-25T12:23:05.617Z,30.21
2022-08-25T12:24:12.948Z,30.20
2022-08-25T12:25:24.145Z,30.20
2022-08-25T12:26:50.497Z,30.17
2022-08-25T12:28:16.652Z,30.19
2022-08-25T12:29:27.948Z,30.20
2022-08-25T12:30:47.260Z,30.21
2022-08-25T12:32:04.397Z,30.24
2022-08-25T12:33:13.075Z,30.28
2022-08-25T12:34:41.455Z,30.30
2022-08-25T12:36:04.620Z,30.31
2022-08-25T12:37:22.551Z,30.26
2022-08-25T12:38:34.797Z,30.24
2022-08-25T12:39:43.975Z,30.21
2022-08-25T12:40:48.650Z,30.23
2022-08-25T12:41:56.552Z,30.23
2022-08-25T12:43:24.924Z,30.24
2022-08-25T12:44:41.813Z,30.24
2022-08-25T12:45:46.027Z,30.23
2022-08-25T12:46:48.403Z,30.19
2022-08-25T12:47:50.268Z,30.26
2022-08-25T12:49:02.420Z,30.28
2022-08-25T12:50:35.044Z,30.30
2022-08-25T12:51:39.629Z,30.26
2022-08-25T12:52:42.100Z,30.23
2022-08-25T12:53:47.897Z,30.19
2022-08-25T12:55:00.797Z,30.17
2022-08-25T12:56:10.476Z,30.16
2022-08-25T12:57:33.576Z,30.09
2022-08-25T12:59:00.816Z,30.05
2022-08-25T13:00:18.422Z,29.99
2022-08-25T13:01:52.730Z,29.87
2022-08-25T13:03:21.893Z,29.80
2022-08-25T13:04:42.134Z,29.73
2022-08-25T13:05:53.335Z,29.69
2022-08-25T13:07:16.439Z,29.66
2022-08-25T13:08:33.672Z,29.63
2022-08-25T13:10:03.889Z,29.61
2022-08-25T13:11:13.964Z,29.65
2022-08-25T13:12:22.209Z,29.67
2022-08-25T13:13:41.910Z,29.72
2022-08-25T13:14:44.532Z,29.75
2022-08-25T13:15:48.788Z,29.79
2022-08-25T13:16:59.949Z,29.86
2022-08-25T13:18:13.733Z,29.79
2022-08-25T13:19:18.995Z,29.79
2022-08-25T13:20:24.598Z,29.80
2022-08-25T13:21:31.801Z,29.85
2022-08-25T13:22:36.877Z,29.89
2022-08-25T13:23:44.955Z,29.90
2022-08-25T13:24:50.934Z,30.00
2022-08-25T13:25:53.072Z,30.07
2022-08-25T13:27:02.275Z,30.09
2022-08-25T13:28:10.902Z,30.12
2022-08-25T13:29:17.898Z,30.10
2022-08-25T13:30:28.158Z,30.06
2022-08-25T13:31:30.873Z,30.00
2022-08-25T13:32:35.368Z,29.97
2022-08-25T13:33:37.244Z,29.90
2022-08-25T13:34:42.505Z,29.87
2022-08-25T13:36:11.200Z,29.82
2022-08-25T13:37:32.396Z,29.77
2022-08-25T13:38:34.139Z,29.80
2022-08-25T13:39:55.845Z,29.83
2022-08-25T13:41:03.941Z,29.87
2022-08-25T13:42:14.005Z,29.93
2022-08-25T13:43:15.719Z,30.00
2022-08-25T13:44:18.383Z,30.07
2022-08-25T13:45:31.680Z,30.07
2022-08-25T13:46:35.523Z,30.16
2022-08-25T13:47:43.699Z,30.21
2022-08-25T13:48:49.490Z,30.21
2022-08-25T13:49:51.596Z,30.26
2022-08-25T13:50:53.896Z,30.28
2022-08-25T13:51:55.560Z,30.33
2022-08-25T13:53:22.760Z,30.36
2022-08-25T13:54:40.555Z,30.41
2022-08-25T13:55:51.416Z,30.41
2022-08-25T13:56:53.772Z,30.36
2022-08-25T13:57:57.797Z,30.28
2022-08-25T13:59:00.426Z,30.31
2022-08-25T14:00:07.139Z,30.28
2022-08-25T14:01:22.861Z,30.27
2022-08-25T14:02:49.893Z,30.33
2022-08-25T14:03:52.467Z,30.31
2022-08-25T14:04:54.852Z,30.30
2022-08-25T14:06:14.802Z,30.31
2022-08-25T14:07:26.003Z,30.33
2022-08-25T14:08:33.113Z,30.40
2022-08-25T14:10:00.119Z,30.40
2022-08-25T14:11:14.681Z,30.41
2022-08-25T14:12:38.094Z,30.43
2022-08-25T14:13:44.095Z,30.41
2022-08-25T14:14:46.246Z,30.38
2022-08-25T14:15:50.660Z,30.36
2022-08-25T14:17:12.008Z,30.34
2022-08-25T14:18:29.757Z,30.34
2022-08-25T14:19:31.401Z,30.30
2022-08-25T14:20:33.818Z,30.23